• Join FlightAware (Why Join?)
  • Login
  • US Flag 
04:37PM EST


 

Airport Tracker/Info


-or-


 

Live Flight TrackerFlight Track Log ✈ OPT332 ✈ 04-Nov-2013 ✈ KFAT - KBFL

Flight Track Log - Related Links

Times and Time Zones

All times are in EST time to prevent confusion due to time zone crossing. See the OPT332 flight status page for this flight to view local times or setup timezone preferences in your user account.

Time Position Orientation Groundspeed Altitude Reporting Facility
EST Latitude Longitude Course Direction KTS MPH feet Rate Location/Type
12:14PM 36.7906 -119.7458 214° Southwest 145 167 2,800  Level Oakland Center
12:15PM 36.7589 -119.7725 214° Southwest 182 209 6,500 3,268 Climbing Oakland Center
12:16PM 36.7011 -119.7325 151° Southeast 239 275 9,500 3,122 Climbing Oakland Center
12:17PM 36.6331 -119.6867 152° Southeast 272 313 12,900 3,122 Climbing Oakland Center
12:18PM 36.5539 -119.6436 156° South 307 353 15,900 1,951 Climbing Oakland Center
12:19PM 36.4606 -119.5947 157° South 364 419 16,900 341 Climbing Oakland Center
12:20PM 36.3539 -119.5403 158° South 408 470 16,600 -1,122 Descending Oakland Center
12:21PM 36.2436 -119.4831 157° South 425 489 14,600 -1,820 Descending Oakland Center
12:22PM 36.1228 -119.4211 158° South 389 448 12,900 -829 Descending Oakland Center
12:23PM 36.0225 -119.3700 158° South 390 449 12,900 -146 Level Oakland Center
12:24PM 35.9206 -119.3181 158° South 394 453 12,600 -927 Descending Oakland Center
12:25PM 35.8208 -119.2681 158° South 391 450 11,000 -1,415 Descending Oakland Center
12:26PM 35.7281 -119.2206 157° South 377 434 9,700 -1,721 Descending Oakland Center
12:27PM 35.6650 -119.1647 144° Southeast 329 379 7,500 -2,308 Descending Oakland Center
12:28PM 35.6264 -119.1289 143° Southeast 311 358 6,200 -2,152 Descending Los Angeles Center
12:29PM 35.5664 -119.0722 142° Southeast 291 335 4,200 -1,306 Descending Los Angeles Center
12:30PM 35.5122 -119.0217 143° Southeast 284 327 3,500 -677 Descending Los Angeles Center
12:32PM 35.4333 -119.0500 151° Southeast  Level FlightAware Approximate
12:39PM 35.4339 -119.0577 151° Southeast  Level Estimated
12:40PM 35.4333 -119.0500 151° Southeast  Level FlightAware Approximate
12:41PM 35.4339 -119.0577 151° Southeast  Level Estimated
12:42PM 35.4333 -119.0500 151° Southeast  Level FlightAware Approximate